sensor_id;sensor_type;location;lat;lon;timestamp;temperature;humidity
32476;DHT22;18929;48.008;10.882;2023-07-29T00:01:30;21.30;99.90
32476;DHT22;18929;48.008;10.882;2023-07-29T00:03:57;21.50;99.90
32476;DHT22;18929;48.008;10.882;2023-07-29T00:06:24;21.30;99.90
32476;DHT22;18929;48.008;10.882;2023-07-29T00:08:50;21.50;99.90
32476;DHT22;18929;48.008;10.882;2023-07-29T00:11:17;21.50;99.90
32476;DHT22;18929;48.008;10.882;2023-07-29T00:13:44;21.40;99.90
32476;DHT22;18929;48.008;10.882;2023-07-29T00:16:14;21.50;99.90
32476;DHT22;18929;48.008;10.882;2023-07-29T00:18:42;21.50;99.90
32476;DHT22;18929;48.008;10.882;2023-07-29T00:21:09;21.40;99.90
32476;DHT22;18929;48.008;10.882;2023-07-29T00:23:36;21.50;99.90
32476;DHT22;18929;48.008;10.882;2023-07-29T00:26:03;21.50;99.90
32476;DHT22;18929;48.008;10.882;2023-07-29T00:28:30;21.40;99.90
32476;DHT22;18929;48.008;10.882;2023-07-29T00:30:56;21.30;99.90
32476;DHT22;18929;48.008;10.882;2023-07-29T00:33:24;21.30;99.90
32476;DHT22;18929;48.008;10.882;2023-07-29T00:35:51;21.30;99.90
32476;DHT22;18929;48.008;10.882;2023-07-29T00:38:18;20.90;99.90
32476;DHT22;18929;48.008;10.882;2023-07-29T00:40:45;21.30;99.90
32476;DHT22;18929;48.008;10.882;2023-07-29T00:43:12;21.20;99.90
32476;DHT22;18929;48.008;10.882;2023-07-29T00:45:39;21.20;99.90
32476;DHT22;18929;48.008;10.882;2023-07-29T00:48:08;21.20;99.90
32476;DHT22;18929;48.008;10.882;2023-07-29T00:50:36;21.20;99.90
32476;DHT22;18929;48.008;10.882;2023-07-29T00:53:03;21.20;99.90
32476;DHT22;18929;48.008;10.882;2023-07-29T00:55:30;21.10;99.90
32476;DHT22;18929;48.008;10.882;2023-07-29T00:57:57;21.00;99.90
32476;DHT22;18929;48.008;10.882;2023-07-29T01:00:24;21.00;99.90
32476;DHT22;18929;48.008;10.882;2023-07-29T01:02:52;21.00;99.90
32476;DHT22;18929;48.008;10.882;2023-07-29T01:05:20;20.80;99.90
32476;DHT22;18929;48.008;10.882;2023-07-29T01:07:49;21.00;99.90
32476;DHT22;18929;48.008;10.882;2023-07-29T01:10:19;21.10;99.90
32476;DHT22;18929;48.008;10.882;2023-07-29T01:12:48;21.00;99.90
32476;DHT22;18929;48.008;10.882;2023-07-29T01:15:19;20.90;99.90
32476;DHT22;18929;48.008;10.882;2023-07-29T01:17:48;20.70;99.90
32476;DHT22;18929;48.008;10.882;2023-07-29T01:20:16;20.70;99.90
32476;DHT22;18929;48.008;10.882;2023-07-29T01:22:46;20.80;99.90
32476;DHT22;18929;48.008;10.882;2023-07-29T01:25:15;20.70;99.90
32476;DHT22;18929;48.008;10.882;2023-07-29T01:27:42;20.70;99.90
32476;DHT22;18929;48.008;10.882;2023-07-29T01:30:08;20.60;99.90
32476;DHT22;18929;48.008;10.882;2023-07-29T01:32:36;20.70;99.90
32476;DHT22;18929;48.008;10.882;2023-07-29T01:35:07;20.60;99.90
32476;DHT22;18929;48.008;10.882;2023-07-29T01:37:36;20.70;99.90
32476;DHT22;18929;48.008;10.882;2023-07-29T01:40:04;20.60;99.90
32476;DHT22;18929;48.008;10.882;2023-07-29T01:42:33;20.60;99.90
32476;DHT22;18929;48.008;10.882;2023-07-29T01:45:00;20.60;99.90
32476;DHT22;18929;48.008;10.882;2023-07-29T01:47:26;20.60;99.90
32476;DHT22;18929;48.008;10.882;2023-07-29T01:49:53;20.50;99.90
32476;DHT22;18929;48.008;10.882;2023-07-29T01:52:20;20.40;99.90
32476;DHT22;18929;48.008;10.882;2023-07-29T01:54:48;20.20;99.90
32476;DHT22;18929;48.008;10.882;2023-07-29T01:57:15;20.40;99.90
32476;DHT22;18929;48.008;10.882;2023-07-29T01:59:43;20.40;99.90
32476;DHT22;18929;48.008;10.882;2023-07-29T02:02:09;20.30;99.90
32476;DHT22;18929;48.008;10.882;2023-07-29T02:04:36;20.20;99.90
32476;DHT22;18929;48.008;10.882;2023-07-29T02:07:03;20.10;99.90
32476;DHT22;18929;48.008;10.882;2023-07-29T02:09:30;19.90;99.90
32476;DHT22;18929;48.008;10.882;2023-07-29T02:11:58;19.60;99.90
32476;DHT22;18929;48.008;10.882;2023-07-29T02:14:25;19.20;99.90
32476;DHT22;18929;48.008;10.882;2023-07-29T02:16:53;19.70;99.90
32476;DHT22;18929;48.008;10.882;2023-07-29T02:19:20;19.90;99.90
32476;DHT22;18929;48.008;10.882;2023-07-29T02:21:47;19.90;99.90
32476;DHT22;18929;48.008;10.882;2023-07-29T02:24:15;20.10;99.90
32476;DHT22;18929;48.008;10.882;2023-07-29T02:26:42;20.00;99.90
32476;DHT22;18929;48.008;10.882;2023-07-29T02:29:09;19.90;99.90
32476;DHT22;18929;48.008;10.882;2023-07-29T02:31:35;19.80;99.90
32476;DHT22;18929;48.008;10.882;2023-07-29T02:34:04;19.40;99.90
32476;DHT22;18929;48.008;10.882;2023-07-29T02:36:31;19.90;99.90
32476;DHT22;18929;48.008;10.882;2023-07-29T02:38:58;20.00;99.90
32476;DHT22;18929;48.008;10.882;2023-07-29T02:41:24;20.10;99.90
32476;DHT22;18929;48.008;10.882;2023-07-29T02:43:51;19.80;99.90
32476;DHT22;18929;48.008;10.882;2023-07-29T02:46:18;20.00;99.90
32476;DHT22;18929;48.008;10.882;2023-07-29T02:48:44;20.00;99.90
32476;DHT22;18929;48.008;10.882;2023-07-29T02:51:12;19.50;99.90
32476;DHT22;18929;48.008;10.882;2023-07-29T02:53:39;19.80;99.90
32476;DHT22;18929;48.008;10.882;2023-07-29T02:56:06;19.70;99.90
32476;DHT22;18929;48.008;10.882;2023-07-29T02:58:35;19.70;99.90
32476;DHT22;18929;48.008;10.882;2023-07-29T03:01:02;19.80;99.90
32476;DHT22;18929;48.008;10.882;2023-07-29T03:03:29;20.00;99.90
32476;DHT22;18929;48.008;10.882;2023-07-29T03:05:59;20.00;99.90
32476;DHT22;18929;48.008;10.882;2023-07-29T03:08:28;19.50;99.90
32476;DHT22;18929;48.008;10.882;2023-07-29T03:10:55;20.10;99.90
32476;DHT22;18929;48.008;10.882;2023-07-29T03:13:22;20.10;99.90
32476;DHT22;18929;48.008;10.882;2023-07-29T03:15:51;20.00;99.90
32476;DHT22;18929;48.008;10.882;2023-07-29T03:18:17;19.80;99.90
32476;DHT22;18929;48.008;10.882;2023-07-29T03:20:44;19.90;99.90
32476;DHT22;18929;48.008;10.882;2023-07-29T03:23:11;19.90;99.90
32476;DHT22;18929;48.008;10.882;2023-07-29T03:25:39;19.90;99.90
32476;DHT22;18929;48.008;10.882;2023-07-29T03:28:06;19.80;99.90
32476;DHT22;18929;48.008;10.882;2023-07-29T03:30:32;19.90;99.90
32476;DHT22;18929;48.008;10.882;2023-07-29T03:32:59;19.80;99.90
32476;DHT22;18929;48.008;10.882;2023-07-29T03:35:26;19.80;99.90
32476;DHT22;18929;48.008;10.882;2023-07-29T03:37:53;19.50;99.90
32476;DHT22;18929;48.008;10.882;2023-07-29T03:40:20;19.20;99.90
32476;DHT22;18929;48.008;10.882;2023-07-29T03:42:48;18.90;99.90
32476;DHT22;18929;48.008;10.882;2023-07-29T03:45:15;19.40;99.90
32476;DHT22;18929;48.008;10.882;2023-07-29T03:47:41;19.60;99.90
32476;DHT22;18929;48.008;10.882;2023-07-29T03:50:08;19.70;99.90
32476;DHT22;18929;48.008;10.882;2023-07-29T03:52:35;19.60;99.90
32476;DHT22;18929;48.008;10.882;2023-07-29T03:55:02;19.50;99.90
32476;DHT22;18929;48.008;10.882;2023-07-29T03:57:29;19.60;99.90
32476;DHT22;18929;48.008;10.882;2023-07-29T03:59:57;19.60;99.90
32476;DHT22;18929;48.008;10.882;2023-07-29T04:02:27;19.60;99.90
32476;DHT22;18929;48.008;10.882;2023-07-29T04:04:54;19.60;99.90
32476;DHT22;18929;48.008;10.882;2023-07-29T04:07:21;19.40;99.90
32476;DHT22;18929;48.008;10.882;2023-07-29T04:09:47;19.70;99.90
32476;DHT22;18929;48.008;10.882;2023-07-29T04:12:14;19.60;99.90
32476;DHT22;18929;48.008;10.882;2023-07-29T04:14:41;19.60;99.90
32476;DHT22;18929;48.008;10.882;2023-07-29T04:17:09;19.70;99.90
32476;DHT22;18929;48.008;10.882;2023-07-29T04:19:36;19.70;99.90
32476;DHT22;18929;48.008;10.882;2023-07-29T04:22:03;19.90;99.90
32476;DHT22;18929;48.008;10.882;2023-07-29T04:24:30;19.70;99.90
32476;DHT22;18929;48.008;10.882;2023-07-29T04:26:56;19.80;99.90
32476;DHT22;18929;48.008;10.882;2023-07-29T04:29:23;19.80;99.90
32476;DHT22;18929;48.008;10.882;2023-07-29T04:31:50;19.80;99.90
32476;DHT22;18929;48.008;10.882;2023-07-29T04:34:21;19.70;99.90
32476;DHT22;18929;48.008;10.882;2023-07-29T04:36:48;19.80;99.90
32476;DHT22;18929;48.008;10.882;2023-07-29T04:39:15;20.00;99.90
32476;DHT22;18929;48.008;10.882;2023-07-29T04:41:41;20.10;99.90
32476;DHT22;18929;48.008;10.882;2023-07-29T04:44:08;20.10;99.90
32476;DHT22;18929;48.008;10.882;2023-07-29T04:46:36;19.60;99.90
32476;DHT22;18929;48.008;10.882;2023-07-29T04:49:03;19.60;99.90
32476;DHT22;18929;48.008;10.882;2023-07-29T04:51:31;19.60;99.90
32476;DHT22;18929;48.008;10.882;2023-07-29T04:53:58;19.90;99.90
32476;DHT22;18929;48.008;10.882;2023-07-29T04:56:25;19.50;99.90
32476;DHT22;18929;48.008;10.882;2023-07-29T04:58:51;19.40;99.90
32476;DHT22;18929;48.008;10.882;2023-07-29T05:01:19;19.10;99.90
32476;DHT22;18929;48.008;10.882;2023-07-29T05:03:46;19.50;99.90
32476;DHT22;18929;48.008;10.882;2023-07-29T05:06:12;19.50;99.90
32476;DHT22;18929;48.008;10.882;2023-07-29T05:08:41;19.10;99.90
32476;DHT22;18929;48.008;10.882;2023-07-29T05:11:07;18.20;99.90
32476;DHT22;18929;48.008;10.882;2023-07-29T05:13:34;17.70;99.90
32476;DHT22;18929;48.008;10.882;2023-07-29T05:16:01;18.10;99.90
32476;DHT22;18929;48.008;10.882;2023-07-29T05:18:28;18.40;99.90
32476;DHT22;18929;48.008;10.882;2023-07-29T05:20:57;18.70;99.90
32476;DHT22;18929;48.008;10.882;2023-07-29T05:23:24;19.00;99.90
32476;DHT22;18929;48.008;10.882;2023-07-29T05:25:52;19.30;99.90
32476;DHT22;18929;48.008;10.882;2023-07-29T05:28:19;19.60;99.90
32476;DHT22;18929;48.008;10.882;2023-07-29T05:30:46;19.50;99.90
32476;DHT22;18929;48.008;10.882;2023-07-29T05:33:13;19.50;99.90
32476;DHT22;18929;48.008;10.882;2023-07-29T05:35:39;19.20;99.90
32476;DHT22;18929;48.008;10.882;2023-07-29T05:40:37;19.50;99.90
32476;DHT22;18929;48.008;10.882;2023-07-29T05:43:05;19.50;99.90
32476;DHT22;18929;48.008;10.882;2023-07-29T05:45:32;19.70;99.90
32476;DHT22;18929;48.008;10.882;2023-07-29T05:47:59;19.80;99.90
32476;DHT22;18929;48.008;10.882;2023-07-29T05:50:25;19.80;99.90
32476;DHT22;18929;48.008;10.882;2023-07-29T05:52:52;19.70;99.90
32476;DHT22;18929;48.008;10.882;2023-07-29T05:55:19;19.80;99.90
32476;DHT22;18929;48.008;10.882;2023-07-29T05:57:46;20.10;99.90
32476;DHT22;18929;48.008;10.882;2023-07-29T06:00:14;19.70;99.90
32476;DHT22;18929;48.008;10.882;2023-07-29T06:02:41;19.60;99.90
32476;DHT22;18929;48.008;10.882;2023-07-29T06:05:07;19.30;99.90
32476;DHT22;18929;48.008;10.882;2023-07-29T06:07:35;19.00;99.90
32476;DHT22;18929;48.008;10.882;2023-07-29T06:10:01;18.80;99.90
32476;DHT22;18929;48.008;10.882;2023-07-29T06:12:28;18.70;99.90
32476;DHT22;18929;48.008;10.882;2023-07-29T06:14:55;18.60;99.90
32476;DHT22;18929;48.008;10.882;2023-07-29T06:17:23;18.80;99.90
32476;DHT22;18929;48.008;10.882;2023-07-29T06:19:50;19.00;99.90
32476;DHT22;18929;48.008;10.882;2023-07-29T06:22:17;18.90;99.90
32476;DHT22;18929;48.008;10.882;2023-07-29T06:27:14;18.90;99.90
32476;DHT22;18929;48.008;10.882;2023-07-29T06:29:41;19.10;99.90
32476;DHT22;18929;48.008;10.882;2023-07-29T06:32:08;18.70;99.90
32476;DHT22;18929;48.008;10.882;2023-07-29T06:34:36;18.50;99.90
32476;DHT22;18929;48.008;10.882;2023-07-29T06:37:03;18.90;99.90
32476;DHT22;18929;48.008;10.882;2023-07-29T06:39:30;19.20;99.90
32476;DHT22;18929;48.008;10.882;2023-07-29T06:41:57;19.10;99.90
32476;DHT22;18929;48.008;10.882;2023-07-29T06:44:23;19.10;99.90
32476;DHT22;18929;48.008;10.882;2023-07-29T06:46:50;18.90;99.90
32476;DHT22;18929;48.008;10.882;2023-07-29T06:49:17;18.70;99.90
32476;DHT22;18929;48.008;10.882;2023-07-29T06:51:45;19.20;99.90
32476;DHT22;18929;48.008;10.882;2023-07-29T06:54:13;19.20;99.90
32476;DHT22;18929;48.008;10.882;2023-07-29T06:56:40;19.00;99.90
32476;DHT22;18929;48.008;10.882;2023-07-29T06:59:07;19.30;99.90
32476;DHT22;18929;48.008;10.882;2023-07-29T07:01:33;19.50;99.90
32476;DHT22;18929;48.008;10.882;2023-07-29T07:04:00;19.80;99.90
32476;DHT22;18929;48.008;10.882;2023-07-29T07:06:27;20.00;99.90
32476;DHT22;18929;48.008;10.882;2023-07-29T07:08:55;20.00;99.90
32476;DHT22;18929;48.008;10.882;2023-07-29T07:11:23;20.10;99.90
32476;DHT22;18929;48.008;10.882;2023-07-29T07:13:50;19.90;99.90
32476;DHT22;18929;48.008;10.882;2023-07-29T07:16:17;19.90;99.90
32476;DHT22;18929;48.008;10.882;2023-07-29T07:18:43;20.10;99.90
32476;DHT22;18929;48.008;10.882;2023-07-29T07:21:10;20.10;99.90
32476;DHT22;18929;48.008;10.882;2023-07-29T07:23:38;20.10;99.90
32476;DHT22;18929;48.008;10.882;2023-07-29T07:26:06;20.30;99.90
32476;DHT22;18929;48.008;10.882;2023-07-29T07:28:33;19.80;99.90
32476;DHT22;18929;48.008;10.882;2023-07-29T07:31:01;19.90;99.90
32476;DHT22;18929;48.008;10.882;2023-07-29T07:33:28;20.00;99.90
32476;DHT22;18929;48.008;10.882;2023-07-29T07:35:54;19.60;99.90
32476;DHT22;18929;48.008;10.882;2023-07-29T07:38:21;19.50;99.90
32476;DHT22;18929;48.008;10.882;2023-07-29T07:40:54;19.60;99.90
32476;DHT22;18929;48.008;10.882;2023-07-29T07:43:23;19.60;99.90
32476;DHT22;18929;48.008;10.882;2023-07-29T07:45:51;19.50;99.90
32476;DHT22;18929;48.008;10.882;2023-07-29T07:48:24;19.30;99.90
32476;DHT22;18929;48.008;10.882;2023-07-29T07:50:51;19.30;99.90
32476;DHT22;18929;48.008;10.882;2023-07-29T07:53:18;19.30;99.90
32476;DHT22;18929;48.008;10.882;2023-07-29T07:55:45;19.30;99.90
32476;DHT22;18929;48.008;10.882;2023-07-29T07:58:12;19.40;99.90
32476;DHT22;18929;48.008;10.882;2023-07-29T08:00:41;19.60;99.90
32476;DHT22;18929;48.008;10.882;2023-07-29T08:03:08;19.80;99.90
32476;DHT22;18929;48.008;10.882;2023-07-29T08:05:35;20.10;99.90
32476;DHT22;18929;48.008;10.882;2023-07-29T08:08:02;20.10;99.90
32476;DHT22;18929;48.008;10.882;2023-07-29T08:10:29;20.30;99.90
32476;DHT22;18929;48.008;10.882;2023-07-29T08:12:55;20.30;99.90
32476;DHT22;18929;48.008;10.882;2023-07-29T08:15:22;20.10;99.90
32476;DHT22;18929;48.008;10.882;2023-07-29T08:17:52;20.20;99.90
32476;DHT22;18929;48.008;10.882;2023-07-29T08:20:19;20.30;99.90
32476;DHT22;18929;48.008;10.882;2023-07-29T08:22:46;20.20;99.90
32476;DHT22;18929;48.008;10.882;2023-07-29T08:25:13;20.00;99.90
32476;DHT22;18929;48.008;10.882;2023-07-29T08:27:40;20.30;99.90
32476;DHT22;18929;48.008;10.882;2023-07-29T08:30:07;20.40;99.90
32476;DHT22;18929;48.008;10.882;2023-07-29T08:32:37;20.70;99.90
32476;DHT22;18929;48.008;10.882;2023-07-29T08:35:05;20.80;99.90
32476;DHT22;18929;48.008;10.882;2023-07-29T08:37:32;20.80;99.90
32476;DHT22;18929;48.008;10.882;2023-07-29T08:39:59;20.70;99.90
32476;DHT22;18929;48.008;10.882;2023-07-29T08:42:27;20.60;99.90
32476;DHT22;18929;48.008;10.882;2023-07-29T08:44:55;20.80;99.90
32476;DHT22;18929;48.008;10.882;2023-07-29T08:47:22;20.90;99.90
32476;DHT22;18929;48.008;10.882;2023-07-29T08:49:49;20.40;99.90
32476;DHT22;18929;48.008;10.882;2023-07-29T08:54:49;20.00;99.90
32476;DHT22;18929;48.008;10.882;2023-07-29T08:57:16;20.00;99.90
32476;DHT22;18929;48.008;10.882;2023-07-29T08:59:43;19.80;99.90
32476;DHT22;18929;48.008;10.882;2023-07-29T09:02:23;20.00;99.90
32476;DHT22;18929;48.008;10.882;2023-07-29T09:04:50;20.50;99.90
32476;DHT22;18929;48.008;10.882;2023-07-29T09:07:17;20.30;99.90
32476;DHT22;18929;48.008;10.882;2023-07-29T09:09:44;20.20;99.90
32476;DHT22;18929;48.008;10.882;2023-07-29T09:12:12;20.20;99.90
32476;DHT22;18929;48.008;10.882;2023-07-29T09:14:39;20.20;99.90
32476;DHT22;18929;48.008;10.882;2023-07-29T09:17:06;20.00;99.90
32476;DHT22;18929;48.008;10.882;2023-07-29T09:19:33;20.50;99.90
32476;DHT22;18929;48.008;10.882;2023-07-29T09:22:00;21.40;99.90
32476;DHT22;18929;48.008;10.882;2023-07-29T09:24:27;21.10;99.90
32476;DHT22;18929;48.008;10.882;2023-07-29T09:26:55;21.10;99.90
32476;DHT22;18929;48.008;10.882;2023-07-29T09:29:23;21.30;99.90
32476;DHT22;18929;48.008;10.882;2023-07-29T09:31:50;21.30;99.90
32476;DHT22;18929;48.008;10.882;2023-07-29T09:34:17;21.30;99.90
32476;DHT22;18929;48.008;10.882;2023-07-29T09:36:44;21.30;99.90
32476;DHT22;18929;48.008;10.882;2023-07-29T09:39:11;21.40;99.90
32476;DHT22;18929;48.008;10.882;2023-07-29T09:41:37;21.10;99.90
32476;DHT22;18929;48.008;10.882;2023-07-29T09:44:05;21.60;99.90
32476;DHT22;18929;48.008;10.882;2023-07-29T09:46:33;21.30;99.90
32476;DHT22;18929;48.008;10.882;2023-07-29T09:49:01;21.30;99.90
32476;DHT22;18929;48.008;10.882;2023-07-29T09:51:28;21.40;99.90
32476;DHT22;18929;48.008;10.882;2023-07-29T09:53:55;21.50;99.90
32476;DHT22;18929;48.008;10.882;2023-07-29T09:56:24;21.70;99.90
32476;DHT22;18929;48.008;10.882;2023-07-29T09:58:52;22.30;99.90
32476;DHT22;18929;48.008;10.882;2023-07-29T10:01:19;22.10;99.90
32476;DHT22;18929;48.008;10.882;2023-07-29T10:03:48;22.10;99.90
32476;DHT22;18929;48.008;10.882;2023-07-29T10:06:15;21.70;99.90
32476;DHT22;18929;48.008;10.882;2023-07-29T10:08:42;21.60;99.90
32476;DHT22;18929;48.008;10.882;2023-07-29T10:11:09;21.30;99.90
32476;DHT22;18929;48.008;10.882;2023-07-29T10:13:37;21.30;99.90
32476;DHT22;18929;48.008;10.882;2023-07-29T10:16:04;21.50;99.90
32476;DHT22;18929;48.008;10.882;2023-07-29T10:18:32;21.50;99.90
32476;DHT22;18929;48.008;10.882;2023-07-29T10:21:01;21.40;99.90
32476;DHT22;18929;48.008;10.882;2023-07-29T10:23:30;22.10;99.90
32476;DHT22;18929;48.008;10.882;2023-07-29T10:25:59;21.70;99.90
32476;DHT22;18929;48.008;10.882;2023-07-29T10:28:29;21.30;99.90
32476;DHT22;18929;48.008;10.882;2023-07-29T10:30:56;21.70;99.90
32476;DHT22;18929;48.008;10.882;2023-07-29T10:33:23;22.10;99.90
32476;DHT22;18929;48.008;10.882;2023-07-29T10:35:50;22.20;99.90
32476;DHT22;18929;48.008;10.882;2023-07-29T10:38:18;21.80;99.90
32476;DHT22;18929;48.008;10.882;2023-07-29T10:40:46;22.40;99.90
32476;DHT22;18929;48.008;10.882;2023-07-29T10:43:18;22.10;99.90
32476;DHT22;18929;48.008;10.882;2023-07-29T10:45:45;22.90;99.90
32476;DHT22;18929;48.008;10.882;2023-07-29T10:48:13;22.30;99.90
32476;DHT22;18929;48.008;10.882;2023-07-29T10:53:43;22.50;99.90
32476;DHT22;18929;48.008;10.882;2023-07-29T10:56:10;22.20;99.90
32476;DHT22;18929;48.008;10.882;2023-07-29T10:58:36;22.00;99.90
32476;DHT22;18929;48.008;10.882;2023-07-29T11:01:05;22.20;99.90
32476;DHT22;18929;48.008;10.882;2023-07-29T11:03:39;22.00;99.90
32476;DHT22;18929;48.008;10.882;2023-07-29T11:06:05;21.90;99.90
32476;DHT22;18929;48.008;10.882;2023-07-29T11:08:32;21.90;99.90
32476;DHT22;18929;48.008;10.882;2023-07-29T11:11:05;22.20;99.90
32476;DHT22;18929;48.008;10.882;2023-07-29T11:13:32;22.70;99.90
32476;DHT22;18929;48.008;10.882;2023-07-29T11:15:59;22.50;99.90
32476;DHT22;18929;48.008;10.882;2023-07-29T11:18:27;22.60;99.90
32476;DHT22;18929;48.008;10.882;2023-07-29T11:20:55;23.00;99.90
32476;DHT22;18929;48.008;10.882;2023-07-29T11:23:28;22.90;99.90
32476;DHT22;18929;48.008;10.882;2023-07-29T11:25:55;23.40;99.90
32476;DHT22;18929;48.008;10.882;2023-07-29T11:28:23;23.10;99.90
32476;DHT22;18929;48.008;10.882;2023-07-29T11:30:50;23.30;99.90
32476;DHT22;18929;48.008;10.882;2023-07-29T11:33:18;23.20;99.90
32476;DHT22;18929;48.008;10.882;2023-07-29T11:35:45;22.90;99.90
32476;DHT22;18929;48.008;10.882;2023-07-29T11:38:14;23.30;99.90
32476;DHT22;18929;48.008;10.882;2023-07-29T11:40:41;23.40;99.90
32476;DHT22;18929;48.008;10.882;2023-07-29T11:43:08;23.50;99.90
32476;DHT22;18929;48.008;10.882;2023-07-29T11:45:36;23.30;99.90
32476;DHT22;18929;48.008;10.882;2023-07-29T11:48:03;23.40;99.90
32476;DHT22;18929;48.008;10.882;2023-07-29T11:50:30;23.60;99.90
32476;DHT22;18929;48.008;10.882;2023-07-29T11:52:57;23.30;99.90
32476;DHT22;18929;48.008;10.882;2023-07-29T11:55:24;23.30;99.90
32476;DHT22;18929;48.008;10.882;2023-07-29T11:57:51;23.20;99.90
32476;DHT22;18929;48.008;10.882;2023-07-29T12:00:18;23.50;99.90
32476;DHT22;18929;48.008;10.882;2023-07-29T12:02:48;23.80;99.90
32476;DHT22;18929;48.008;10.882;2023-07-29T12:05:15;23.80;99.90
32476;DHT22;18929;48.008;10.882;2023-07-29T12:07:43;23.40;99.90
32476;DHT22;18929;48.008;10.882;2023-07-29T12:10:10;23.70;99.90
32476;DHT22;18929;48.008;10.882;2023-07-29T12:12:40;23.60;99.90
32476;DHT22;18929;48.008;10.882;2023-07-29T12:15:07;23.50;99.90
32476;DHT22;18929;48.008;10.882;2023-07-29T12:17:37;23.40;99.90
32476;DHT22;18929;48.008;10.882;2023-07-29T12:20:07;24.10;99.90
32476;DHT22;18929;48.008;10.882;2023-07-29T12:22:34;24.20;99.90
32476;DHT22;18929;48.008;10.882;2023-07-29T12:25:01;24.70;99.90
32476;DHT22;18929;48.008;10.882;2023-07-29T12:27:30;24.30;99.90
32476;DHT22;18929;48.008;10.882;2023-07-29T12:29:56;24.30;99.90
32476;DHT22;18929;48.008;10.882;2023-07-29T12:32:24;25.20;99.90
32476;DHT22;18929;48.008;10.882;2023-07-29T12:34:52;25.10;99.90
32476;DHT22;18929;48.008;10.882;2023-07-29T12:37:30;24.90;99.90
32476;DHT22;18929;48.008;10.882;2023-07-29T12:39:57;24.80;99.90
32476;DHT22;18929;48.008;10.882;2023-07-29T12:42:24;24.70;99.90
32476;DHT22;18929;48.008;10.882;2023-07-29T12:44:51;24.80;99.90
32476;DHT22;18929;48.008;10.882;2023-07-29T12:47:17;24.60;99.90
32476;DHT22;18929;48.008;10.882;2023-07-29T12:49:44;24.50;99.90
32476;DHT22;18929;48.008;10.882;2023-07-29T12:52:11;24.30;99.90
32476;DHT22;18929;48.008;10.882;2023-07-29T12:54:39;24.20;99.90
32476;DHT22;18929;48.008;10.882;2023-07-29T12:57:09;24.70;99.90
32476;DHT22;18929;48.008;10.882;2023-07-29T12:59:36;25.20;99.90
32476;DHT22;18929;48.008;10.882;2023-07-29T13:02:03;25.10;99.90
32476;DHT22;18929;48.008;10.882;2023-07-29T13:04:30;25.50;99.90
32476;DHT22;18929;48.008;10.882;2023-07-29T13:06:56;25.10;99.90
32476;DHT22;18929;48.008;10.882;2023-07-29T13:09:24;24.50;99.90
32476;DHT22;18929;48.008;10.882;2023-07-29T13:11:53;23.80;99.90
32476;DHT22;18929;48.008;10.882;2023-07-29T13:14:19;22.90;99.90
32476;DHT22;18929;48.008;10.882;2023-07-29T13:16:46;22.50;99.90
32476;DHT22;18929;48.008;10.882;2023-07-29T13:19:13;22.30;99.90
32476;DHT22;18929;48.008;10.882;2023-07-29T13:21:40;22.90;99.90
32476;DHT22;18929;48.008;10.882;2023-07-29T13:24:06;23.00;99.90
32476;DHT22;18929;48.008;10.882;2023-07-29T13:26:33;22.60;99.90
32476;DHT22;18929;48.008;10.882;2023-07-29T13:29:02;23.20;99.90
32476;DHT22;18929;48.008;10.882;2023-07-29T13:31:30;23.30;99.90
32476;DHT22;18929;48.008;10.882;2023-07-29T13:33:57;23.90;99.90
32476;DHT22;18929;48.008;10.882;2023-07-29T13:36:24;23.70;99.90
32476;DHT22;18929;48.008;10.882;2023-07-29T13:38:51;24.10;99.90
32476;DHT22;18929;48.008;10.882;2023-07-29T13:41:18;24.10;99.90
32476;DHT22;18929;48.008;10.882;2023-07-29T13:43:44;23.40;99.90
32476;DHT22;18929;48.008;10.882;2023-07-29T13:46:12;23.40;99.90
32476;DHT22;18929;48.008;10.882;2023-07-29T13:48:38;23.10;99.90
32476;DHT22;18929;48.008;10.882;2023-07-29T13:51:05;23.80;99.90
32476;DHT22;18929;48.008;10.882;2023-07-29T13:53:32;23.90;99.90
32476;DHT22;18929;48.008;10.882;2023-07-29T13:55:59;24.00;99.90
32476;DHT22;18929;48.008;10.882;2023-07-29T13:58:25;24.00;99.90
32476;DHT22;18929;48.008;10.882;2023-07-29T14:00:52;24.00;99.90
32476;DHT22;18929;48.008;10.882;2023-07-29T14:03:20;23.80;99.90
32476;DHT22;18929;48.008;10.882;2023-07-29T14:05:47;23.40;99.90
32476;DHT22;18929;48.008;10.882;2023-07-29T14:08:14;23.40;99.90
32476;DHT22;18929;48.008;10.882;2023-07-29T14:10:41;23.60;99.90
32476;DHT22;18929;48.008;10.882;2023-07-29T14:13:07;22.80;99.90
32476;DHT22;18929;48.008;10.882;2023-07-29T14:15:35;22.80;99.90
32476;DHT22;18929;48.008;10.882;2023-07-29T14:18:02;22.00;99.90
32476;DHT22;18929;48.008;10.882;2023-07-29T14:20:30;22.40;99.90
32476;DHT22;18929;48.008;10.882;2023-07-29T14:22:57;21.80;99.90
32476;DHT22;18929;48.008;10.882;2023-07-29T14:25:24;21.90;99.90
32476;DHT22;18929;48.008;10.882;2023-07-29T14:27:51;23.00;99.90
32476;DHT22;18929;48.008;10.882;2023-07-29T14:30:18;23.30;99.90
32476;DHT22;18929;48.008;10.882;2023-07-29T14:32:45;23.30;99.90
32476;DHT22;18929;48.008;10.882;2023-07-29T14:35:12;23.50;99.90
32476;DHT22;18929;48.008;10.882;2023-07-29T14:37:40;23.50;99.90
32476;DHT22;18929;48.008;10.882;2023-07-29T14:40:07;23.30;99.90
32476;DHT22;18929;48.008;10.882;2023-07-29T14:42:34;23.80;99.90
32476;DHT22;18929;48.008;10.882;2023-07-29T14:45:01;23.90;99.90
32476;DHT22;18929;48.008;10.882;2023-07-29T14:47:27;24.00;99.90
32476;DHT22;18929;48.008;10.882;2023-07-29T14:49:58;23.50;99.90
32476;DHT22;18929;48.008;10.882;2023-07-29T14:52:25;24.00;99.90
32476;DHT22;18929;48.008;10.882;2023-07-29T14:54:53;24.10;99.90
32476;DHT22;18929;48.008;10.882;2023-07-29T14:57:19;24.40;99.90
32476;DHT22;18929;48.008;10.882;2023-07-29T14:59:47;24.40;99.90
32476;DHT22;18929;48.008;10.882;2023-07-29T15:02:13;24.30;99.90
32476;DHT22;18929;48.008;10.882;2023-07-29T15:04:40;24.40;99.90
32476;DHT22;18929;48.008;10.882;2023-07-29T15:07:07;24.50;99.90
32476;DHT22;18929;48.008;10.882;2023-07-29T15:09:34;24.40;99.90
32476;DHT22;18929;48.008;10.882;2023-07-29T15:12:09;24.60;99.90
32476;DHT22;18929;48.008;10.882;2023-07-29T15:14:42;24.70;99.90
32476;DHT22;18929;48.008;10.882;2023-07-29T15:17:09;24.70;99.90
32476;DHT22;18929;48.008;10.882;2023-07-29T15:19:36;24.30;99.90
32476;DHT22;18929;48.008;10.882;2023-07-29T15:22:02;24.00;99.90
32476;DHT22;18929;48.008;10.882;2023-07-29T15:24:30;24.10;99.90
32476;DHT22;18929;48.008;10.882;2023-07-29T15:26:57;23.90;99.90